Time;durP1;ratioP1;P1;durP2;ratioP2;P2;SDS_P1;SDS_P2;PMS_P1;PMS_P2;Temp;Humidity;BMP_temperature;BMP_pressure;BME280_temperature;BME280_humidity;BME280_pressure;Samples;Min_cycle;Max_cycle;Signal;HPM_P1;HPM_P2
2022/01/01 00:02:16;;;;;;;135.20;89.97;;;;;;;;;;5071521;28;20430;-76
2022/01/01 00:04:44;;;;;;;123.97;79.75;;;;;;;;;;5071556;28;20104;-76
2022/01/01 00:07:10;;;;;;;129.88;80.97;;;;;;;;;;5071470;28;20036;-77
2022/01/01 00:09:38;;;;;;;103.90;67.55;;;;;;;;;;5071609;28;20468;-78
2022/01/01 00:12:05;;;;;;;72.30;48.25;;;;;;;;;;5071519;28;20033;-77
2022/01/01 00:14:31;;;;;;;72.43;47.30;;;;;;;;;;5071344;28;20158;-77
2022/01/01 00:16:57;;;;;;;73.47;47.20;;;;;;;;;;5071597;28;20032;-80
2022/01/01 00:19:26;;;;;;;80.97;51.53;;;;;;;;;;5069856;28;20437;-78
2022/01/01 00:21:52;;;;;;;76.13;56.20;;;;;;;;;;5071384;28;20028;-79
2022/01/01 00:24:18;;;;;;;88.35;57.63;;;;;;;;;;5073621;28;20051;-80
2022/01/01 00:26:44;;;;;;;109.95;75.10;;;;;;;;;;5075182;28;20375;-78
2022/01/01 00:29:11;;;;;;;109.85;75.10;;;;;;;;;;5074906;28;20384;-80
2022/01/01 00:31:42;;;;;;;111.20;78.05;;;;;;;;;;5074838;28;20033;-78
2022/01/01 00:34:08;;;;;;;105.43;74.97;;;;;;;;;;5074985;28;20021;-81
2022/01/01 00:36:34;;;;;;;120.70;83.70;;;;;;;;;;5074861;28;20055;-80
2022/01/01 00:39:03;;;;;;;122.53;86.35;;;;;;;;;;5074980;28;20025;-78
2022/01/01 00:41:31;;;;;;;178.52;113.63;;;;;;;;;;5074700;28;20025;-81
2022/01/01 00:43:57;;;;;;;146.50;99.60;;;;;;;;;;5074876;28;20044;-77
2022/01/01 00:46:24;;;;;;;119.82;79.15;;;;;;;;;;5074530;28;20028;-78
2022/01/01 00:48:53;;;;;;;106.00;69.90;;;;;;;;;;5074878;28;20089;-79
2022/01/01 00:51:23;;;;;;;106.18;73.15;;;;;;;;;;5074301;28;20035;-77
2022/01/01 00:53:49;;;;;;;70.65;49.58;;;;;;;;;;5074721;28;20464;-79
2022/01/01 00:56:15;;;;;;;63.90;45.83;;;;;;;;;;5074317;28;20464;-79
2022/01/01 00:58:44;;;;;;;61.45;44.90;;;;;;;;;;5074744;28;20439;-77
2022/01/01 01:01:10;;;;;;;42.63;31.73;;;;;;;;;;5074394;28;20103;-79
2022/01/01 01:03:36;;;;;;;60.53;44.80;;;;;;;;;;5074266;28;20066;-78
2022/01/01 01:06:03;;;;;;;80.03;52.58;;;;;;;;;;5074293;28;20021;-80
2022/01/01 01:08:30;;;;;;;122.30;73.40;;;;;;;;;;5074231;28;20029;-81
2022/01/01 01:10:57;;;;;;;125.57;82.00;;;;;;;;;;5074214;28;20024;-78
2022/01/01 01:13:24;;;;;;;113.95;75.00;;;;;;;;;;5073852;28;20021;-81
2022/01/01 01:15:51;;;;;;;98.78;63.22;;;;;;;;;;5072915;28;20501;-76
2022/01/01 01:18:17;;;;;;;102.72;69.20;;;;;;;;;;5073999;28;20032;-79
2022/01/01 01:20:43;;;;;;;95.15;64.63;;;;;;;;;;5074210;28;20032;-78
2022/01/01 01:23:09;;;;;;;84.90;60.13;;;;;;;;;;5072797;28;20040;-76
2022/01/01 01:25:42;;;;;;;86.80;55.55;;;;;;;;;;5073826;28;20044;-77
2022/01/01 01:28:10;;;;;;;69.00;46.90;;;;;;;;;;5073851;28;20087;-80
2022/01/01 01:30:37;;;;;;;61.20;45.55;;;;;;;;;;5073991;28;20029;-77
2022/01/01 01:33:04;;;;;;;55.13;39.53;;;;;;;;;;5073805;28;20017;-79
2022/01/01 01:35:30;;;;;;;47.65;31.88;;;;;;;;;;5073684;28;20078;-80
2022/01/01 01:37:56;;;;;;;43.70;32.35;;;;;;;;;;5073731;28;20383;-78
2022/01/01 01:40:22;;;;;;;72.35;50.00;;;;;;;;;;5073355;28;20031;-78
2022/01/01 01:42:50;;;;;;;93.05;59.63;;;;;;;;;;5073547;28;20111;-79
2022/01/01 01:45:19;;;;;;;82.07;57.03;;;;;;;;;;5071870;28;20116;-77
2022/01/01 01:47:46;;;;;;;84.53;59.05;;;;;;;;;;5073576;28;20396;-77
2022/01/01 01:50:13;;;;;;;82.60;56.20;;;;;;;;;;5073406;28;20050;-79
2022/01/01 01:52:40;;;;;;;80.97;54.75;;;;;;;;;;5073315;28;20078;-81
2022/01/01 01:55:07;;;;;;;80.20;49.60;;;;;;;;;;5073371;28;20031;-79
2022/01/01 01:57:40;;;;;;;69.13;45.70;;;;;;;;;;5073215;28;20032;-79
2022/01/01 02:00:24;;;;;;;67.38;43.55;;;;;;;;;;5073116;28;20043;-78
2022/01/01 02:02:52;;;;;;;75.63;44.80;;;;;;;;;;5073259;28;20025;-79
2022/01/01 02:05:19;;;;;;;65.75;40.63;;;;;;;;;;5072938;28;20052;-79
2022/01/01 02:07:45;;;;;;;66.00;39.45;;;;;;;;;;5073077;28;20032;-77
2022/01/01 02:10:11;;;;;;;60.10;37.55;;;;;;;;;;5072864;28;20020;-80
2022/01/01 02:12:39;;;;;;;56.58;34.03;;;;;;;;;;5073090;28;20024;-80
2022/01/01 02:17:31;;;;;;;50.97;34.58;;;;;;;;;;5073105;28;20115;-80
2022/01/01 02:20:03;;;;;;;70.38;45.05;;;;;;;;;;5074056;28;20063;-76
2022/01/01 02:22:47;;;;;;;83.28;52.45;;;;;;;;;;5075205;28;20099;-78
2022/01/01 02:25:19;;;;;;;99.30;65.30;;;;;;;;;;5074536;28;20129;-79
2022/01/01 02:27:46;;;;;;;58.10;41.08;;;;;;;;;;5073750;28;20376;-78
2022/01/01 02:30:14;;;;;;;49.38;32.67;;;;;;;;;;5072797;28;20024;-80
2022/01/01 02:32:40;;;;;;;58.80;36.83;;;;;;;;;;5072477;28;20074;-79
2022/01/01 02:35:07;;;;;;;53.88;35.63;;;;;;;;;;5072778;28;20099;-78
2022/01/01 02:37:35;;;;;;;58.70;38.97;;;;;;;;;;5072564;28;20426;-79
2022/01/01 02:40:04;;;;;;;45.95;29.95;;;;;;;;;;5072828;28;20032;-77
2022/01/01 02:42:33;;;;;;;41.30;27.55;;;;;;;;;;5072455;28;20039;-77
2022/01/01 02:45:01;;;;;;;34.60;23.27;;;;;;;;;;5072449;28;20035;-78
2022/01/01 02:47:27;;;;;;;33.58;22.30;;;;;;;;;;5072340;28;20098;-80
2022/01/01 02:49:53;;;;;;;27.77;21.00;;;;;;;;;;5072555;28;20032;-78
2022/01/01 02:52:20;;;;;;;31.52;21.33;;;;;;;;;;5072357;28;20112;-79
2022/01/01 02:54:49;;;;;;;34.03;22.08;;;;;;;;;;5072120;28;20360;-80
2022/01/01 02:57:16;;;;;;;29.42;21.63;;;;;;;;;;5072358;28;20036;-76
2022/01/01 02:59:42;;;;;;;32.70;23.13;;;;;;;;;;5072183;28;20024;-77
2022/01/01 03:02:09;;;;;;;36.97;23.50;;;;;;;;;;5072446;28;20031;-78
2022/01/01 03:04:35;;;;;;;35.42;25.27;;;;;;;;;;5072145;28;20043;-77
2022/01/01 03:07:01;;;;;;;39.08;26.13;;;;;;;;;;5072425;28;20047;-79
2022/01/01 03:09:34;;;;;;;37.00;25.48;;;;;;;;;;5072221;28;20042;-78
2022/01/01 03:12:04;;;;;;;50.00;35.63;;;;;;;;;;5072363;28;20111;-79
2022/01/01 03:14:30;;;;;;;50.67;36.30;;;;;;;;;;5071950;28;20025;-77
2022/01/01 03:16:57;;;;;;;66.25;45.85;;;;;;;;;;5072188;28;20029;-77
2022/01/01 03:19:23;;;;;;;79.88;54.03;;;;;;;;;;5072009;28;20028;-79
2022/01/01 03:21:49;;;;;;;56.05;37.55;;;;;;;;;;5072019;28;20024;-77
2022/01/01 03:24:15;;;;;;;46.28;33.25;;;;;;;;;;5071939;28;20120;-79
2022/01/01 03:26:42;;;;;;;56.05;39.33;;;;;;;;;;5071859;28;20529;-78
2022/01/01 03:29:08;;;;;;;48.53;34.58;;;;;;;;;;5072149;28;20025;-79
2022/01/01 03:31:34;;;;;;;33.13;24.95;;;;;;;;;;5072149;28;20515;-79
2022/01/01 03:34:01;;;;;;;41.83;29.42;;;;;;;;;;5072129;28;20039;-79
2022/01/01 03:36:28;;;;;;;56.03;39.55;;;;;;;;;;5072102;28;20444;-80
2022/01/01 03:38:55;;;;;;;62.63;41.70;;;;;;;;;;5072019;28;20032;-81
2022/01/01 03:41:26;;;;;;;54.92;37.78;;;;;;;;;;5071907;28;20399;-81
2022/01/01 03:43:52;;;;;;;50.95;36.80;;;;;;;;;;5071776;28;20047;-77
2022/01/01 03:46:18;;;;;;;42.22;30.88;;;;;;;;;;5072007;28;20391;-78
2022/01/01 03:48:46;;;;;;;63.92;38.72;;;;;;;;;;5071660;28;20528;-78
2022/01/01 03:51:12;;;;;;;295.45;119.38;;;;;;;;;;5071905;28;20155;-77
2022/01/01 03:53:39;;;;;;;104.85;53.53;;;;;;;;;;5071574;28;20427;-79
2022/01/01 03:56:08;;;;;;;81.78;43.65;;;;;;;;;;5071966;28;20033;-78
2022/01/01 03:58:34;;;;;;;52.05;31.85;;;;;;;;;;5073677;28;20032;-77
2022/01/01 04:01:00;;;;;;;57.90;39.35;;;;;;;;;;5075606;28;20021;-78
2022/01/01 04:03:26;;;;;;;52.75;34.95;;;;;;;;;;5075504;28;20036;-77
2022/01/01 04:05:53;;;;;;;50.63;33.13;;;;;;;;;;5075325;28;20440;-79
2022/01/01 04:08:22;;;;;;;49.13;30.83;;;;;;;;;;5075590;28;20025;-81
2022/01/01 04:11:10;;;;;;;42.90;29.90;;;;;;;;;;5073966;28;20056;-79
2022/01/01 04:13:39;;;;;;;42.88;28.77;;;;;;;;;;5075451;28;20527;-80
2022/01/01 04:16:06;;;;;;;39.15;26.75;;;;;;;;;;5075471;28;20454;-78
2022/01/01 04:18:38;;;;;;;36.60;24.63;;;;;;;;;;5075059;28;20036;-78
2022/01/01 04:21:23;;;;;;;31.63;22.23;;;;;;;;;;5075408;28;20039;-78
2022/01/01 04:23:49;;;;;;;37.92;24.88;;;;;;;;;;5075213;28;20062;-78
2022/01/01 04:26:15;;;;;;;35.00;24.75;;;;;;;;;;5074692;28;20476;-77
2022/01/01 04:28:44;;;;;;;34.90;23.25;;;;;;;;;;5075119;28;20545;-79
2022/01/01 04:31:11;;;;;;;32.38;21.70;;;;;;;;;;5074910;28;20028;-78
2022/01/01 04:33:37;;;;;;;33.45;22.27;;;;;;;;;;5075071;28;20021;-77
2022/01/01 04:36:04;;;;;;;35.53;23.20;;;;;;;;;;5075263;28;20375;-78
2022/01/01 04:38:39;;;;;;;36.13;22.67;;;;;;;;;;5075335;28;20024;-79
2022/01/01 04:41:06;;;;;;;40.90;25.35;;;;;;;;;;5074666;28;20078;-80
2022/01/01 04:43:38;;;;;;;31.42;22.27;;;;;;;;;;5074703;28;20048;-78
2022/01/01 04:46:04;;;;;;;36.45;23.73;;;;;;;;;;5074704;28;20078;-80
2022/01/01 04:48:30;;;;;;;41.90;26.52;;;;;;;;;;5074714;28;20468;-80
2022/01/01 04:50:56;;;;;;;40.35;26.13;;;;;;;;;;5074616;28;20036;-77
2022/01/01 04:53:22;;;;;;;56.25;34.92;;;;;;;;;;5074861;28;20033;-81
2022/01/01 04:55:49;;;;;;;59.80;38.15;;;;;;;;;;5074604;28;20097;-77
2022/01/01 04:58:15;;;;;;;38.95;26.27;;;;;;;;;;5074473;28;20040;-79
2022/01/01 05:00:42;;;;;;;35.72;23.80;;;;;;;;;;5074729;28;20101;-79
2022/01/01 05:03:08;;;;;;;33.28;22.98;;;;;;;;;;5074226;28;20111;-78
2022/01/01 05:05:34;;;;;;;32.10;23.88;;;;;;;;;;5074379;28;20495;-78
2022/01/01 05:08:00;;;;;;;37.50;25.77;;;;;;;;;;5074144;28;20025;-77
2022/01/01 05:10:27;;;;;;;39.83;26.98;;;;;;;;;;5073940;28;20035;-76
2022/01/01 05:12:53;;;;;;;45.65;29.80;;;;;;;;;;5072885;28;20456;-78
2022/01/01 05:15:19;;;;;;;51.03;31.15;;;;;;;;;;5073206;28;20091;-80
2022/01/01 05:17:45;;;;;;;44.45;30.30;;;;;;;;;;5074298;28;20033;-79
2022/01/01 05:20:12;;;;;;;80.15;51.22;;;;;;;;;;5073624;28;20538;-80
2022/01/01 05:22:38;;;;;;;71.95;47.28;;;;;;;;;;5072945;28;20044;-76
2022/01/01 05:25:05;;;;;;;143.43;66.57;;;;;;;;;;5073784;28;20403;-76
2022/01/01 05:27:36;;;;;;;63.88;40.13;;;;;;;;;;5074004;28;20032;-78
2022/01/01 05:30:06;;;;;;;70.25;43.65;;;;;;;;;;5074072;28;20039;-78
2022/01/01 05:32:32;;;;;;;59.03;38.17;;;;;;;;;;5073997;28;20029;-77
2022/01/01 05:34:58;;;;;;;59.88;37.72;;;;;;;;;;5073708;28;20020;-79
2022/01/01 05:37:24;;;;;;;53.20;34.50;;;;;;;;;;5072578;28;20404;-76
2022/01/01 05:39:51;;;;;;;52.90;34.90;;;;;;;;;;5073807;28;20044;-80
2022/01/01 05:42:17;;;;;;;52.50;36.15;;;;;;;;;;5073099;28;20031;-81
2022/01/01 05:44:45;;;;;;;56.33;35.25;;;;;;;;;;5072457;28;20051;-81
2022/01/01 05:47:20;;;;;;;;;;;;;;;;;;5072390;28;20128;-80
2022/01/01 05:49:46;;;;;;;44.67;30.75;;;;;;;;;;5073587;28;19904;-80
2022/01/01 05:52:12;;;;;;;49.17;33.30;;;;;;;;;;5072721;28;20093;-77
2022/01/01 05:54:38;;;;;;;48.60;31.38;;;;;;;;;;5073151;28;20059;-78
2022/01/01 05:57:05;;;;;;;47.75;31.17;;;;;;;;;;5073396;28;20495;-79
2022/01/01 05:59:31;;;;;;;49.47;33.28;;;;;;;;;;5073313;28;20034;-80
2022/01/01 06:01:58;;;;;;;55.15;33.72;;;;;;;;;;5072996;28;20029;-77
2022/01/01 06:04:24;;;;;;;77.65;50.67;;;;;;;;;;5073336;28;20384;-79
2022/01/01 06:06:50;;;;;;;56.28;38.63;;;;;;;;;;5071932;28;20055;-77
2022/01/01 06:09:19;;;;;;;72.85;44.85;;;;;;;;;;5073104;28;20074;-77
2022/01/01 06:11:45;;;;;;;76.18;48.25;;;;;;;;;;5073145;28;20070;-78
2022/01/01 06:14:30;;;;;;;83.18;53.17;;;;;;;;;;5072995;28;20029;-80
2022/01/01 06:16:59;;;;;;;76.13;49.85;;;;;;;;;;5072835;28;20024;-78
2022/01/01 06:19:25;;;;;;;74.95;51.53;;;;;;;;;;5073004;28;20058;-78
2022/01/01 06:21:51;;;;;;;101.45;67.57;;;;;;;;;;5072015;28;20028;-78
2022/01/01 06:24:36;;;;;;;103.07;68.78;;;;;;;;;;5072157;28;20036;-81
2022/01/01 06:27:02;;;;;;;93.45;61.90;;;;;;;;;;5072884;28;20477;-78
2022/01/01 06:29:28;;;;;;;74.18;49.03;;;;;;;;;;5072479;28;20455;-79
2022/01/01 06:31:54;;;;;;;72.93;46.85;;;;;;;;;;5072062;28;20039;-77
2022/01/01 06:34:24;;;;;;;72.95;51.03;;;;;;;;;;5072447;28;20048;-77
2022/01/01 06:36:52;;;;;;;79.32;51.15;;;;;;;;;;5072658;28;20036;-79
2022/01/01 06:39:19;;;;;;;97.20;60.97;;;;;;;;;;5072232;28;20074;-79
2022/01/01 06:41:45;;;;;;;78.72;52.33;;;;;;;;;;5072447;28;20043;-78
2022/01/01 06:44:11;;;;;;;124.40;82.47;;;;;;;;;;5072521;28;20040;-80
2022/01/01 06:46:40;;;;;;;113.15;75.43;;;;;;;;;;5072340;28;20059;-79
2022/01/01 06:49:08;;;;;;;113.88;72.63;;;;;;;;;;5072616;28;20047;-79
2022/01/01 06:51:36;;;;;;;103.22;67.97;;;;;;;;;;5072278;28;20133;-77
2022/01/01 06:54:02;;;;;;;99.20;64.97;;;;;;;;;;5072461;28;20047;-78
2022/01/01 06:56:28;;;;;;;85.05;56.97;;;;;;;;;;5072422;28;20530;-78
2022/01/01 06:58:54;;;;;;;87.55;58.53;;;;;;;;;;5072627;28;20024;-80
2022/01/01 07:01:21;;;;;;;90.00;60.53;;;;;;;;;;5072470;28;20047;-77
2022/01/01 07:03:50;;;;;;;90.40;58.53;;;;;;;;;;5071621;28;20033;-79
2022/01/01 07:06:16;;;;;;;67.35;46.97;;;;;;;;;;5072406;28;20527;-80
2022/01/01 07:08:42;;;;;;;66.95;45.22;;;;;;;;;;5071690;28;20115;-78
2022/01/01 07:11:08;;;;;;;64.47;43.60;;;;;;;;;;5072354;28;20031;-76
2022/01/01 07:13:39;;;;;;;55.03;37.80;;;;;;;;;;5071619;28;20097;-81
2022/01/01 07:16:06;;;;;;;49.63;35.05;;;;;;;;;;5072030;28;20021;-77
2022/01/01 07:18:32;;;;;;;53.45;35.47;;;;;;;;;;5070705;28;20032;-78
2022/01/01 07:21:00;;;;;;;48.00;31.70;;;;;;;;;;5072070;28;20145;-76
2022/01/01 07:23:26;;;;;;;47.00;31.67;;;;;;;;;;5071982;28;20467;-77
2022/01/01 07:25:52;;;;;;;47.97;31.02;;;;;;;;;;5071935;28;20052;-79
2022/01/01 07:28:18;;;;;;;55.42;37.75;;;;;;;;;;5071826;28;20036;-78
2022/01/01 07:30:50;;;;;;;56.28;38.40;;;;;;;;;;5071870;28;20037;-78
2022/01/01 07:33:16;;;;;;;48.75;34.17;;;;;;;;;;5075630;28;20099;-81
2022/01/01 07:35:42;;;;;;;39.50;28.70;;;;;;;;;;5075863;28;20030;-78
2022/01/01 07:38:09;;;;;;;40.58;28.08;;;;;;;;;;5076220;28;20036;-77
2022/01/01 07:40:39;;;;;;;35.50;27.17;;;;;;;;;;5075862;28;20025;-80
2022/01/01 07:43:15;;;;;;;42.17;29.08;;;;;;;;;;5076024;28;20032;-79
2022/01/01 07:45:42;;;;;;;46.55;32.17;;;;;;;;;;5075916;28;20392;-77
2022/01/01 07:48:08;;;;;;;39.20;27.55;;;;;;;;;;5075918;28;20020;-79
2022/01/01 07:50:38;;;;;;;34.22;25.60;;;;;;;;;;5075816;28;20482;-80
2022/01/01 07:53:08;;;;;;;44.78;32.80;;;;;;;;;;5075962;28;20038;-78
2022/01/01 07:55:36;;;;;;;44.47;32.63;;;;;;;;;;5075601;28;20024;-78
2022/01/01 07:58:02;;;;;;;41.70;30.23;;;;;;;;;;5075847;28;20078;-75
2022/01/01 08:00:28;;;;;;;42.13;30.80;;;;;;;;;;5075551;28;20024;-81
2022/01/01 08:02:55;;;;;;;42.88;28.38;;;;;;;;;;5075591;28;20068;-77
2022/01/01 08:05:21;;;;;;;34.58;24.95;;;;;;;;;;5075472;28;20035;-75
2022/01/01 08:07:47;;;;;;;36.83;24.90;;;;;;;;;;5074422;28;20016;-79
2022/01/01 08:10:13;;;;;;;34.97;26.45;;;;;;;;;;5075623;28;20042;-81
2022/01/01 08:12:43;;;;;;;32.92;23.92;;;;;;;;;;5074816;28;20454;-75
2022/01/01 08:15:09;;;;;;;36.10;24.48;;;;;;;;;;5074939;28;20032;-82
2022/01/01 08:17:36;;;;;;;35.33;23.88;;;;;;;;;;5074867;28;20040;-74
2022/01/01 08:20:02;;;;;;;33.33;24.08;;;;;;;;;;5075353;28;20151;-77
2022/01/01 08:22:28;;;;;;;36.58;25.00;;;;;;;;;;5075186;28;20024;-82
2022/01/01 08:24:54;;;;;;;35.45;25.77;;;;;;;;;;5074817;28;20055;-80
2022/01/01 08:27:20;;;;;;;36.00;26.50;;;;;;;;;;5074949;28;20027;-82
2022/01/01 08:29:49;;;;;;;34.00;25.27;;;;;;;;;;5074997;28;20028;-79
2022/01/01 08:32:15;;;;;;;34.75;26.13;;;;;;;;;;5075021;28;20039;-82
2022/01/01 08:34:43;;;;;;;38.10;26.58;;;;;;;;;;5074967;28;20016;-79
2022/01/01 08:37:12;;;;;;;36.72;27.40;;;;;;;;;;5075115;28;20039;-77
2022/01/01 08:39:41;;;;;;;35.05;25.30;;;;;;;;;;5074919;28;20024;-78
2022/01/01 08:42:09;;;;;;;36.00;25.42;;;;;;;;;;5075029;28;20028;-80
2022/01/01 08:44:35;;;;;;;33.90;25.90;;;;;;;;;;5073850;28;20047;-78
2022/01/01 08:47:05;;;;;;;44.25;31.38;;;;;;;;;;5073518;28;20041;-80
2022/01/01 08:49:31;;;;;;;53.00;36.28;;;;;;;;;;5074675;28;20039;-77
2022/01/01 08:51:57;;;;;;;64.05;47.20;;;;;;;;;;5074792;28;20033;-78
2022/01/01 08:54:23;;;;;;;86.70;63.05;;;;;;;;;;5074696;28;20044;-77
2022/01/01 08:56:49;;;;;;;118.07;88.05;;;;;;;;;;5074019;28;20436;-84
2022/01/01 08:59:16;;;;;;;103.38;76.47;;;;;;;;;;5074829;28;20490;-83
2022/01/01 09:01:42;;;;;;;91.32;65.13;;;;;;;;;;5074652;28;20086;-78
2022/01/01 09:04:08;;;;;;;72.85;50.90;;;;;;;;;;5074484;28;20024;-80
2022/01/01 09:06:34;;;;;;;59.88;45.15;;;;;;;;;;5074387;28;20460;-80
2022/01/01 09:09:00;;;;;;;63.17;44.75;;;;;;;;;;5074468;28;20472;-76
2022/01/01 09:11:26;;;;;;;43.65;32.75;;;;;;;;;;5073765;28;20044;-80
2022/01/01 09:13:52;;;;;;;37.40;28.77;;;;;;;;;;5074274;28;20353;-78
2022/01/01 09:16:20;;;;;;;38.22;28.25;;;;;;;;;;5074452;28;20468;-77
2022/01/01 09:18:47;;;;;;;36.95;27.45;;;;;;;;;;5072909;28;20027;-82
2022/01/01 09:21:13;;;;;;;49.17;37.33;;;;;;;;;;5074400;28;20107;-77
2022/01/01 09:23:40;;;;;;;55.58;39.58;;;;;;;;;;5073661;28;20483;-80
2022/01/01 09:26:06;;;;;;;50.20;35.33;;;;;;;;;;5073945;28;20507;-80
2022/01/01 09:28:33;;;;;;;48.03;34.22;;;;;;;;;;5073950;28;20036;-78
2022/01/01 09:31:00;;;;;;;57.67;41.80;;;;;;;;;;5074072;28;20029;-76
2022/01/01 09:33:33;;;;;;;58.42;43.08;;;;;;;;;;5073976;28;20470;-79
2022/01/01 09:36:00;;;;;;;68.78;49.85;;;;;;;;;;5072580;28;20059;-80
2022/01/01 09:38:26;;;;;;;74.93;51.60;;;;;;;;;;5073849;28;20028;-79
2022/01/01 09:40:54;;;;;;;76.07;53.72;;;;;;;;;;5073774;28;20108;-76
2022/01/01 09:43:21;;;;;;;66.40;48.97;;;;;;;;;;5072145;28;20055;-78
2022/01/01 09:45:49;;;;;;;59.65;45.63;;;;;;;;;;5073688;28;20043;-77
2022/01/01 09:48:15;;;;;;;65.05;46.50;;;;;;;;;;5073713;28;20032;-76
2022/01/01 09:50:47;;;;;;;62.90;46.85;;;;;;;;;;5073494;28;20063;-80
2022/01/01 09:53:13;;;;;;;60.58;45.78;;;;;;;;;;5073566;28;20029;-78
2022/01/01 09:55:39;;;;;;;58.92;43.45;;;;;;;;;;5072235;28;20138;-76
2022/01/01 09:58:05;;;;;;;61.72;44.78;;;;;;;;;;5073497;28;20036;-81
2022/01/01 10:00:31;;;;;;;71.45;48.60;;;;;;;;;;5073210;28;20479;-85
2022/01/01 10:02:57;;;;;;;60.58;44.45;;;;;;;;;;5073285;28;20031;-83
2022/01/01 10:05:23;;;;;;;62.92;46.60;;;;;;;;;;5073335;28;20021;-82
2022/01/01 10:07:49;;;;;;;62.92;47.28;;;;;;;;;;5073140;28;20031;-77
2022/01/01 10:10:21;;;;;;;79.35;61.15;;;;;;;;;;5073217;28;20031;-80
2022/01/01 10:12:48;;;;;;;69.30;53.63;;;;;;;;;;5073251;28;20025;-79
2022/01/01 10:15:17;;;;;;;46.47;35.92;;;;;;;;;;5073127;28;20031;-84
2022/01/01 10:17:43;;;;;;;41.58;34.53;;;;;;;;;;5073192;28;20028;-80
2022/01/01 10:20:09;;;;;;;56.00;40.30;;;;;;;;;;5071661;28;20035;-79
2022/01/01 10:22:39;;;;;;;48.92;39.10;;;;;;;;;;5072857;28;20063;-79
2022/01/01 10:27:53;;;;;;;51.38;37.08;;;;;;;;;;5073337;28;20039;-79
2022/01/01 10:30:40;;;;;;;59.28;42.42;;;;;;;;;;5072784;28;20036;-75
2022/01/01 10:33:09;;;;;;;55.92;42.58;;;;;;;;;;5072742;28;20048;-79
2022/01/01 10:35:56;;;;;;;48.70;39.10;;;;;;;;;;5072980;28;20037;-78
2022/01/01 10:38:27;;;;;;;47.83;34.70;;;;;;;;;;5072799;28;20533;-81
2022/01/01 10:40:54;;;;;;;55.28;39.97;;;;;;;;;;5072771;28;20020;-77
2022/01/01 10:43:21;;;;;;;42.55;32.42;;;;;;;;;;5072479;28;20037;-80
2022/01/01 10:45:58;;;;;;;24.70;16.83;;;;;;;;;;5072620;28;20047;-76
2022/01/01 10:48:39;;;;;;;18.08;12.18;;;;;;;;;;5072661;28;20399;-74
2022/01/01 10:51:09;;;;;;;13.73;6.40;;;;;;;;;;5072389;28;20502;-75
2022/01/01 10:53:36;;;;;;;13.57;8.85;;;;;;;;;;5072495;28;20032;-83
2022/01/01 10:56:03;;;;;;;9.95;6.05;;;;;;;;;;5071623;28;20024;-78
2022/01/01 10:58:32;;;;;;;5.53;3.90;;;;;;;;;;5072595;28;20081;-78
2022/01/01 11:01:05;;;;;;;8.70;5.10;;;;;;;;;;5071216;28;20043;-78
2022/01/01 11:03:38;;;;;;;8.05;5.53;;;;;;;;;;5072464;28;20033;-78
2022/01/01 11:06:05;;;;;;;7.63;4.90;;;;;;;;;;5071796;28;20052;-76
2022/01/01 11:08:32;;;;;;;7.43;5.38;;;;;;;;;;5072383;28;20387;-79
2022/01/01 11:10:59;;;;;;;9.18;5.88;;;;;;;;;;5072121;28;20035;-82
2022/01/01 11:13:25;;;;;;;8.43;6.00;;;;;;;;;;5072294;28;20020;-80
2022/01/01 11:15:52;;;;;;;9.88;6.05;;;;;;;;;;5072395;28;20468;-77
2022/01/01 11:18:18;;;;;;;7.88;5.22;;;;;;;;;;5072069;28;20032;-72
2022/01/01 11:20:45;;;;;;;8.32;6.10;;;;;;;;;;5071910;28;20035;-73
2022/01/01 11:23:12;;;;;;;8.98;5.13;;;;;;;;;;5071400;28;20082;-70
2022/01/01 11:25:39;;;;;;;7.50;4.85;;;;;;;;;;5071899;28;20050;-77
2022/01/01 11:28:10;;;;;;;8.80;5.93;;;;;;;;;;5071856;28;20054;-75
2022/01/01 11:30:38;;;;;;;5.40;3.95;;;;;;;;;;5072314;28;20038;-82
2022/01/01 11:33:10;;;;;;;7.68;4.55;;;;;;;;;;5071874;28;20472;-83
2022/01/01 11:35:38;;;;;;;9.77;7.05;;;;;;;;;;5072137;28;20032;-82
2022/01/01 11:38:08;;;;;;;15.60;10.23;;;;;;;;;;5071868;28;20385;-80
2022/01/01 11:40:53;;;;;;;7.28;4.60;;;;;;;;;;5072072;28;20032;-79
2022/01/01 11:43:38;;;;;;;12.23;8.98;;;;;;;;;;5071804;28;20043;-79
2022/01/01 11:46:07;;;;;;;7.30;5.15;;;;;;;;;;5072032;28;20539;-76
2022/01/01 11:48:36;;;;;;;9.98;7.07;;;;;;;;;;5071868;28;20056;-79
2022/01/01 11:51:22;;;;;;;10.02;5.20;;;;;;;;;;5072037;28;20060;-79
2022/01/01 11:54:06;;;;;;;8.80;6.38;;;;;;;;;;5071970;28;20023;-79
2022/01/01 11:56:56;;;;;;;7.20;5.10;;;;;;;;;;5072070;28;20025;-79
2022/01/01 11:59:41;;;;;;;5.03;3.70;;;;;;;;;;5068766;28;20041;-78
2022/01/01 12:02:07;;;;;;;;;;;;;;;;;;5072508;28;20409;-79
2022/01/01 12:04:36;;;;;;;5.70;4.10;;;;;;;;;;5070976;28;19970;-79
2022/01/01 12:07:21;;;;;;;5.18;3.33;;;;;;;;;;5072002;28;20031;-77
2022/01/01 12:09:47;;;;;;;;;;;;;;;;;;5071695;28;20559;-80
2022/01/01 12:12:14;;;;;;;3.63;2.63;;;;;;;;;;5071349;28;20384;-79
2022/01/01 12:14:41;;;;;;;5.97;4.22;;;;;;;;;;5071757;28;20132;-76
2022/01/01 12:17:07;;;;;;;4.38;3.25;;;;;;;;;;5071331;28;20025;-75
2022/01/01 12:19:37;;;;;;;6.90;3.70;;;;;;;;;;5073788;28;20094;-76
2022/01/01 12:22:04;;;;;;;5.63;4.40;;;;;;;;;;5075076;28;20033;-82
2022/01/01 12:24:34;;;;;;;8.05;5.20;;;;;;;;;;5075052;28;20037;-79
2022/01/01 12:27:01;;;;;;;8.23;6.43;;;;;;;;;;5075037;28;20028;-78
2022/01/01 12:29:27;;;;;;;9.90;7.40;;;;;;;;;;5075179;28;20028;-80
2022/01/01 12:31:57;;;;;;;5.65;4.35;;;;;;;;;;5075332;28;20025;-81
2022/01/01 12:34:23;;;;;;;5.28;4.45;;;;;;;;;;5075087;28;20052;-77
2022/01/01 12:37:08;;;;;;;6.43;5.13;;;;;;;;;;5075120;28;20070;-77
2022/01/01 12:39:53;;;;;;;8.00;5.70;;;;;;;;;;5075131;28;20095;-79
2022/01/01 12:42:37;;;;;;;8.73;5.78;;;;;;;;;;5075828;28;20024;-78
2022/01/01 12:45:05;;;;;;;7.05;4.85;;;;;;;;;;5075107;28;20037;-79
2022/01/01 12:47:31;;;;;;;9.35;6.50;;;;;;;;;;5074774;28;20025;-80
2022/01/01 12:50:02;;;;;;;6.82;4.90;;;;;;;;;;5074963;28;20047;-79
2022/01/01 12:52:29;;;;;;;10.95;7.60;;;;;;;;;;5074626;28;20029;-76
2022/01/01 12:54:59;;;;;;;8.35;6.78;;;;;;;;;;5074865;28;20062;-81
2022/01/01 12:57:27;;;;;;;24.55;17.35;;;;;;;;;;5074487;28;20039;-81
2022/01/01 12:59:56;;;;;;;27.38;20.17;;;;;;;;;;5074883;28;20052;-78
2022/01/01 13:02:23;;;;;;;13.60;9.93;;;;;;;;;;5074936;28;20028;-76
2022/01/01 13:04:50;;;;;;;12.32;8.38;;;;;;;;;;5078694;28;20047;-79
2022/01/01 13:07:22;;;;;;;10.43;7.68;;;;;;;;;;5076809;28;20025;-78
2022/01/01 13:09:49;;;;;;;8.57;6.68;;;;;;;;;;5076771;28;20021;-76
2022/01/01 13:12:18;;;;;;;10.95;7.03;;;;;;;;;;5074751;28;20066;-78
2022/01/01 13:14:44;;;;;;;7.88;5.55;;;;;;;;;;5074620;28;20028;-77
2022/01/01 13:17:10;;;;;;;7.63;6.07;;;;;;;;;;5074145;28;20036;-78
2022/01/01 13:19:37;;;;;;;7.80;5.80;;;;;;;;;;5072936;28;20387;-78
2022/01/01 13:22:08;;;;;;;8.57;6.10;;;;;;;;;;5074148;28;20027;-75
2022/01/01 13:24:37;;;;;;;11.18;8.18;;;;;;;;;;5073981;28;20071;-79
2022/01/01 13:27:03;;;;;;;9.00;6.75;;;;;;;;;;5074032;28;20028;-80
2022/01/01 13:29:33;;;;;;;11.80;8.30;;;;;;;;;;5073988;28;20033;-78
2022/01/01 13:31:59;;;;;;;9.45;6.55;;;;;;;;;;5073780;28;20514;-80
2022/01/01 13:34:26;;;;;;;10.15;6.38;;;;;;;;;;5073994;28;20051;-81
2022/01/01 13:36:52;;;;;;;7.32;5.53;;;;;;;;;;5073990;28;20060;-78
2022/01/01 13:39:24;;;;;;;9.93;7.97;;;;;;;;;;5072417;28;20462;-81
2022/01/01 13:42:10;;;;;;;8.30;5.78;;;;;;;;;;5072469;28;20021;-76
2022/01/01 13:44:42;;;;;;;9.43;5.68;;;;;;;;;;5073538;28;20484;-77
2022/01/01 13:47:10;;;;;;;10.25;7.18;;;;;;;;;;5073872;28;20043;-80
2022/01/01 13:49:47;;;;;;;9.13;6.10;;;;;;;;;;5073492;28;20059;-81
2022/01/01 13:52:25;;;;;;;15.48;10.32;;;;;;;;;;5073592;28;20043;-78
2022/01/01 13:55:00;;;;;;;12.55;10.05;;;;;;;;;;5073638;28;20051;-78
2022/01/01 13:57:30;;;;;;;10.57;7.43;;;;;;;;;;5073249;28;20020;-78
2022/01/01 13:59:57;;;;;;;10.90;8.73;;;;;;;;;;5073534;28;20025;-82
2022/01/01 14:02:24;;;;;;;11.60;8.10;;;;;;;;;;5073290;28;20529;-80
2022/01/01 14:04:50;;;;;;;8.93;7.05;;;;;;;;;;5073337;28;20059;-77
2022/01/01 14:07:20;;;;;;;10.32;8.38;;;;;;;;;;5073023;28;20028;-76
2022/01/01 14:10:06;;;;;;;13.85;11.10;;;;;;;;;;5073347;28;20502;-77
2022/01/01 14:12:33;;;;;;;9.18;7.78;;;;;;;;;;5073121;28;20024;-82
2022/01/01 14:15:03;;;;;;;10.20;8.07;;;;;;;;;;5072937;28;20051;-80
2022/01/01 14:17:48;;;;;;;15.38;12.25;;;;;;;;;;5073208;28;20078;-80
2022/01/01 14:20:32;;;;;;;13.65;10.98;;;;;;;;;;5073023;28;20111;-77
2022/01/01 14:23:01;;;;;;;16.40;12.85;;;;;;;;;;5073048;28;20038;-79
2022/01/01 14:25:31;;;;;;;5.72;4.10;;;;;;;;;;5072555;28;20052;-73
2022/01/01 14:28:05;;;;;;;8.93;6.82;;;;;;;;;;5073045;28;20112;-80
2022/01/01 14:30:32;;;;;;;8.30;4.60;;;;;;;;;;5072770;28;20029;-81
2022/01/01 14:32:59;;;;;;;14.35;10.23;;;;;;;;;;5072829;28;20029;-81
2022/01/01 14:35:36;;;;;;;8.75;7.10;;;;;;;;;;5072652;28;20116;-78